sensor_id;sensor_type;location;lat;lon;timestamp;P1;durP1;ratioP1;P2;durP2;ratioP2
33593;SDS011;19920;52.242;20.940;2023-06-22T00:01:53;33.83;;;30.33;;
33593;SDS011;19920;52.242;20.940;2023-06-22T00:04:18;33.58;;;30.35;;
33593;SDS011;19920;52.242;20.940;2023-06-22T00:06:44;33.38;;;30.00;;
33593;SDS011;19920;52.242;20.940;2023-06-22T00:09:10;35.38;;;31.83;;
33593;SDS011;19920;52.242;20.940;2023-06-22T00:11:38;35.80;;;32.20;;
33593;SDS011;19920;52.242;20.940;2023-06-22T00:14:04;34.70;;;31.30;;
33593;SDS011;19920;52.242;20.940;2023-06-22T00:16:34;35.03;;;31.58;;
33593;SDS011;19920;52.242;20.940;2023-06-22T00:18:59;37.08;;;33.30;;
33593;SDS011;19920;52.242;20.940;2023-06-22T00:21:26;36.75;;;33.15;;
33593;SDS011;19920;52.242;20.940;2023-06-22T00:23:52;34.83;;;31.42;;
33593;SDS011;19920;52.242;20.940;2023-06-22T00:26:17;34.90;;;31.40;;
33593;SDS011;19920;52.242;20.940;2023-06-22T00:28:44;33.65;;;30.45;;
33593;SDS011;19920;52.242;20.940;2023-06-22T00:31:09;34.55;;;30.83;;
33593;SDS011;19920;52.242;20.940;2023-06-22T00:33:35;33.95;;;30.65;;
33593;SDS011;19920;52.242;20.940;2023-06-22T00:36:00;35.40;;;31.98;;
33593;SDS011;19920;52.242;20.940;2023-06-22T00:38:28;34.67;;;31.27;;
33593;SDS011;19920;52.242;20.940;2023-06-22T00:40:53;36.22;;;32.28;;
33593;SDS011;19920;52.242;20.940;2023-06-22T00:43:19;35.03;;;31.63;;
33593;SDS011;19920;52.242;20.940;2023-06-22T00:45:45;34.15;;;30.67;;
33593;SDS011;19920;52.242;20.940;2023-06-22T00:48:10;35.33;;;31.65;;
33593;SDS011;19920;52.242;20.940;2023-06-22T00:50:37;35.03;;;31.67;;
33593;SDS011;19920;52.242;20.940;2023-06-22T00:53:04;35.38;;;31.67;;
33593;SDS011;19920;52.242;20.940;2023-06-22T00:55:33;33.80;;;30.35;;
33593;SDS011;19920;52.242;20.940;2023-06-22T00:58:02;38.05;;;34.03;;
33593;SDS011;19920;52.242;20.940;2023-06-22T01:00:30;36.85;;;33.28;;
33593;SDS011;19920;52.242;20.940;2023-06-22T01:02:57;35.63;;;31.95;;
33593;SDS011;19920;52.242;20.940;2023-06-22T01:05:23;36.22;;;32.33;;
33593;SDS011;19920;52.242;20.940;2023-06-22T01:16:25;34.72;;;31.15;;
33593;SDS011;19920;52.242;20.940;2023-06-22T01:18:54;36.22;;;32.53;;
33593;SDS011;19920;52.242;20.940;2023-06-22T01:21:23;35.10;;;31.63;;
33593;SDS011;19920;52.242;20.940;2023-06-22T01:26:38;36.45;;;32.60;;
33593;SDS011;19920;52.242;20.940;2023-06-22T01:29:10;35.60;;;31.88;;
33593;SDS011;19920;52.242;20.940;2023-06-22T01:31:38;36.97;;;33.08;;
33593;SDS011;19920;52.242;20.940;2023-06-22T01:34:06;36.45;;;32.63;;
33593;SDS011;19920;52.242;20.940;2023-06-22T01:36:33;36.20;;;32.50;;
33593;SDS011;19920;52.242;20.940;2023-06-22T01:39:00;37.42;;;33.55;;
33593;SDS011;19920;52.242;20.940;2023-06-22T01:41:30;37.15;;;33.22;;
33593;SDS011;19920;52.242;20.940;2023-06-22T01:44:00;38.45;;;34.65;;
33593;SDS011;19920;52.242;20.940;2023-06-22T01:46:27;39.17;;;35.08;;
33593;SDS011;19920;52.242;20.940;2023-06-22T01:48:54;37.80;;;33.85;;
33593;SDS011;19920;52.242;20.940;2023-06-22T01:51:20;38.40;;;34.38;;
33593;SDS011;19920;52.242;20.940;2023-06-22T01:53:46;37.45;;;33.45;;
33593;SDS011;19920;52.242;20.940;2023-06-22T01:56:12;38.10;;;33.97;;
33593;SDS011;19920;52.242;20.940;2023-06-22T01:58:42;38.97;;;35.10;;
33593;SDS011;19920;52.242;20.940;2023-06-22T02:01:15;38.08;;;34.30;;
33593;SDS011;19920;52.242;20.940;2023-06-22T02:03:52;39.13;;;34.33;;
33593;SDS011;19920;52.242;20.940;2023-06-22T02:06:27;40.92;;;36.72;;
33593;SDS011;19920;52.242;20.940;2023-06-22T02:09:01;41.35;;;37.10;;
33593;SDS011;19920;52.242;20.940;2023-06-22T02:11:31;44.72;;;40.05;;
33593;SDS011;19920;52.242;20.940;2023-06-22T02:13:58;44.13;;;39.42;;
33593;SDS011;19920;52.242;20.940;2023-06-22T02:16:24;46.30;;;41.45;;
33593;SDS011;19920;52.242;20.940;2023-06-22T02:18:54;47.50;;;42.30;;
33593;SDS011;19920;52.242;20.940;2023-06-22T02:21:23;48.63;;;43.42;;
33593;SDS011;19920;52.242;20.940;2023-06-22T02:23:49;51.25;;;44.45;;
33593;SDS011;19920;52.242;20.940;2023-06-22T02:26:15;51.58;;;45.90;;
33593;SDS011;19920;52.242;20.940;2023-06-22T02:28:42;53.28;;;47.55;;
33593;SDS011;19920;52.242;20.940;2023-06-22T02:31:08;58.15;;;49.00;;
33593;SDS011;19920;52.242;20.940;2023-06-22T02:33:33;54.65;;;48.72;;
33593;SDS011;19920;52.242;20.940;2023-06-22T02:35:59;54.78;;;48.80;;
33593;SDS011;19920;52.242;20.940;2023-06-22T02:38:25;58.20;;;48.67;;
33593;SDS011;19920;52.242;20.940;2023-06-22T02:40:51;57.45;;;50.33;;
33593;SDS011;19920;52.242;20.940;2023-06-22T02:43:17;59.33;;;51.60;;
33593;SDS011;19920;52.242;20.940;2023-06-22T02:45:42;58.72;;;51.47;;
33593;SDS011;19920;52.242;20.940;2023-06-22T02:48:08;61.92;;;53.83;;
33593;SDS011;19920;52.242;20.940;2023-06-22T02:50:33;68.60;;;56.17;;
33593;SDS011;19920;52.242;20.940;2023-06-22T02:52:59;62.05;;;53.22;;
33593;SDS011;19920;52.242;20.940;2023-06-22T02:55:25;66.20;;;54.53;;
33593;SDS011;19920;52.242;20.940;2023-06-22T02:57:50;68.78;;;56.30;;
33593;SDS011;19920;52.242;20.940;2023-06-22T03:00:17;63.47;;;54.38;;
33593;SDS011;19920;52.242;20.940;2023-06-22T03:02:47;67.03;;;55.67;;
33593;SDS011;19920;52.242;20.940;2023-06-22T03:05:13;69.77;;;54.97;;
33593;SDS011;19920;52.242;20.940;2023-06-22T03:07:43;65.20;;;54.83;;
33593;SDS011;19920;52.242;20.940;2023-06-22T03:10:10;68.35;;;55.40;;
33593;SDS011;19920;52.242;20.940;2023-06-22T03:12:39;67.00;;;55.20;;
33593;SDS011;19920;52.242;20.940;2023-06-22T03:15:06;66.75;;;54.78;;
33593;SDS011;19920;52.242;20.940;2023-06-22T03:17:33;66.50;;;55.95;;
33593;SDS011;19920;52.242;20.940;2023-06-22T03:19:59;68.78;;;55.70;;
33593;SDS011;19920;52.242;20.940;2023-06-22T03:22:24;67.18;;;54.70;;
33593;SDS011;19920;52.242;20.940;2023-06-22T03:24:50;64.78;;;53.08;;
33593;SDS011;19920;52.242;20.940;2023-06-22T03:27:16;69.53;;;54.83;;
33593;SDS011;19920;52.242;20.940;2023-06-22T03:29:42;63.00;;;53.42;;
33593;SDS011;19920;52.242;20.940;2023-06-22T03:32:07;63.70;;;52.45;;
33593;SDS011;19920;52.242;20.940;2023-06-22T03:34:33;63.20;;;50.45;;
33593;SDS011;19920;52.242;20.940;2023-06-22T03:37:00;64.22;;;52.05;;
33593;SDS011;19920;52.242;20.940;2023-06-22T03:39:26;63.35;;;51.97;;
33593;SDS011;19920;52.242;20.940;2023-06-22T03:41:52;61.15;;;51.13;;
33593;SDS011;19920;52.242;20.940;2023-06-22T03:44:17;60.65;;;50.08;;
33593;SDS011;19920;52.242;20.940;2023-06-22T03:46:43;60.75;;;49.90;;
33593;SDS011;19920;52.242;20.940;2023-06-22T03:49:09;57.03;;;48.03;;
33593;SDS011;19920;52.242;20.940;2023-06-22T03:51:34;59.00;;;50.17;;
33593;SDS011;19920;52.242;20.940;2023-06-22T03:54:00;58.92;;;49.55;;
33593;SDS011;19920;52.242;20.940;2023-06-22T03:56:25;57.75;;;47.42;;
33593;SDS011;19920;52.242;20.940;2023-06-22T03:58:51;53.22;;;46.25;;
33593;SDS011;19920;52.242;20.940;2023-06-22T04:01:17;64.72;;;49.70;;
33593;SDS011;19920;52.242;20.940;2023-06-22T04:03:43;55.63;;;47.17;;
33593;SDS011;19920;52.242;20.940;2023-06-22T04:06:08;53.97;;;46.08;;
33593;SDS011;19920;52.242;20.940;2023-06-22T04:08:34;52.85;;;44.58;;
33593;SDS011;19920;52.242;20.940;2023-06-22T04:10:59;51.92;;;44.05;;
33593;SDS011;19920;52.242;20.940;2023-06-22T04:13:25;51.75;;;44.60;;
33593;SDS011;19920;52.242;20.940;2023-06-22T04:15:51;51.53;;;43.35;;
33593;SDS011;19920;52.242;20.940;2023-06-22T04:18:16;51.50;;;43.67;;
33593;SDS011;19920;52.242;20.940;2023-06-22T04:20:42;48.40;;;42.53;;
33593;SDS011;19920;52.242;20.940;2023-06-22T04:23:12;53.10;;;42.00;;
33593;SDS011;19920;52.242;20.940;2023-06-22T04:25:38;52.47;;;42.22;;
33593;SDS011;19920;52.242;20.940;2023-06-22T04:28:04;50.70;;;42.38;;
33593;SDS011;19920;52.242;20.940;2023-06-22T04:30:29;46.28;;;40.45;;
33593;SDS011;19920;52.242;20.940;2023-06-22T04:32:57;47.17;;;41.70;;
33593;SDS011;19920;52.242;20.940;2023-06-22T04:35:23;45.88;;;40.92;;
33593;SDS011;19920;52.242;20.940;2023-06-22T04:37:49;45.35;;;39.53;;
33593;SDS011;19920;52.242;20.940;2023-06-22T04:42:46;46.25;;;40.75;;
33593;SDS011;19920;52.242;20.940;2023-06-22T04:45:17;47.20;;;41.60;;
33593;SDS011;19920;52.242;20.940;2023-06-22T04:47:43;46.47;;;39.90;;
33593;SDS011;19920;52.242;20.940;2023-06-22T04:50:10;43.55;;;38.28;;
33593;SDS011;19920;52.242;20.940;2023-06-22T04:52:36;45.80;;;39.35;;
33593;SDS011;19920;52.242;20.940;2023-06-22T04:55:02;43.53;;;38.75;;
33593;SDS011;19920;52.242;20.940;2023-06-22T04:57:28;44.38;;;38.20;;
33593;SDS011;19920;52.242;20.940;2023-06-22T04:59:58;41.58;;;36.97;;
33593;SDS011;19920;52.242;20.940;2023-06-22T05:02:36;42.45;;;36.63;;
33593;SDS011;19920;52.242;20.940;2023-06-22T05:05:02;40.58;;;35.65;;
33593;SDS011;19920;52.242;20.940;2023-06-22T05:07:32;42.83;;;36.40;;
33593;SDS011;19920;52.242;20.940;2023-06-22T05:09:58;42.50;;;36.45;;
33593;SDS011;19920;52.242;20.940;2023-06-22T05:12:24;40.53;;;35.15;;
33593;SDS011;19920;52.242;20.940;2023-06-22T05:14:50;43.85;;;34.95;;
33593;SDS011;19920;52.242;20.940;2023-06-22T05:17:15;37.45;;;33.35;;
33593;SDS011;19920;52.242;20.940;2023-06-22T05:19:44;42.55;;;33.92;;
33593;SDS011;19920;52.242;20.940;2023-06-22T05:22:13;40.00;;;33.88;;
33593;SDS011;19920;52.242;20.940;2023-06-22T05:24:42;36.00;;;31.17;;
33593;SDS011;19920;52.242;20.940;2023-06-22T05:27:08;40.10;;;31.48;;
33593;SDS011;19920;52.242;20.940;2023-06-22T05:29:34;36.42;;;31.27;;
33593;SDS011;19920;52.242;20.940;2023-06-22T05:32:00;35.22;;;31.05;;
33593;SDS011;19920;52.242;20.940;2023-06-22T05:34:26;37.47;;;31.27;;
33593;SDS011;19920;52.242;20.940;2023-06-22T05:36:51;35.10;;;30.42;;
33593;SDS011;19920;52.242;20.940;2023-06-22T05:39:17;33.03;;;29.50;;
33593;SDS011;19920;52.242;20.940;2023-06-22T05:41:43;33.60;;;29.80;;
33593;SDS011;19920;52.242;20.940;2023-06-22T05:44:11;34.15;;;29.15;;
33593;SDS011;19920;52.242;20.940;2023-06-22T05:46:37;33.63;;;27.58;;
33593;SDS011;19920;52.242;20.940;2023-06-22T05:49:05;33.50;;;28.20;;
33593;SDS011;19920;52.242;20.940;2023-06-22T05:51:31;31.98;;;27.70;;
33593;SDS011;19920;52.242;20.940;2023-06-22T05:53:57;30.98;;;27.70;;
33593;SDS011;19920;52.242;20.940;2023-06-22T05:56:22;29.73;;;26.58;;
33593;SDS011;19920;52.242;20.940;2023-06-22T05:58:48;31.73;;;27.92;;
33593;SDS011;19920;52.242;20.940;2023-06-22T06:01:13;29.38;;;25.42;;
33593;SDS011;19920;52.242;20.940;2023-06-22T06:03:40;28.27;;;25.20;;
33593;SDS011;19920;52.242;20.940;2023-06-22T06:06:09;28.70;;;24.65;;
33593;SDS011;19920;52.242;20.940;2023-06-22T06:08:36;30.42;;;25.08;;
33593;SDS011;19920;52.242;20.940;2023-06-22T06:11:04;29.27;;;26.17;;
33593;SDS011;19920;52.242;20.940;2023-06-22T06:13:30;29.90;;;25.83;;
33593;SDS011;19920;52.242;20.940;2023-06-22T06:15:56;27.42;;;24.50;;
33593;SDS011;19920;52.242;20.940;2023-06-22T06:18:22;29.20;;;24.92;;
33593;SDS011;19920;52.242;20.940;2023-06-22T06:20:48;26.20;;;23.27;;
33593;SDS011;19920;52.242;20.940;2023-06-22T06:23:14;30.02;;;22.45;;
33593;SDS011;19920;52.242;20.940;2023-06-22T06:25:39;27.10;;;22.52;;
33593;SDS011;19920;52.242;20.940;2023-06-22T06:28:05;23.65;;;20.77;;
33593;SDS011;19920;52.242;20.940;2023-06-22T06:30:31;26.83;;;21.98;;
33593;SDS011;19920;52.242;20.940;2023-06-22T06:32:57;24.48;;;20.45;;
33593;SDS011;19920;52.242;20.940;2023-06-22T06:35:23;24.63;;;20.13;;
33593;SDS011;19920;52.242;20.940;2023-06-22T06:37:49;23.27;;;19.95;;
33593;SDS011;19920;52.242;20.940;2023-06-22T06:40:15;23.52;;;19.90;;
33593;SDS011;19920;52.242;20.940;2023-06-22T06:42:43;20.95;;;16.80;;
33593;SDS011;19920;52.242;20.940;2023-06-22T06:45:31;20.85;;;18.65;;
33593;SDS011;19920;52.242;20.940;2023-06-22T06:47:58;22.10;;;19.02;;
33593;SDS011;19920;52.242;20.940;2023-06-22T06:50:23;21.15;;;18.67;;
33593;SDS011;19920;52.242;20.940;2023-06-22T06:52:49;21.30;;;19.02;;
33593;SDS011;19920;52.242;20.940;2023-06-22T06:55:15;21.60;;;19.20;;
33593;SDS011;19920;52.242;20.940;2023-06-22T06:57:42;21.25;;;18.98;;
33593;SDS011;19920;52.242;20.940;2023-06-22T07:00:09;21.63;;;17.73;;
33593;SDS011;19920;52.242;20.940;2023-06-22T07:02:38;19.00;;;17.08;;
33593;SDS011;19920;52.242;20.940;2023-06-22T07:05:05;18.77;;;16.77;;
33593;SDS011;19920;52.242;20.940;2023-06-22T07:07:31;20.00;;;17.90;;
33593;SDS011;19920;52.242;20.940;2023-06-22T07:09:57;16.27;;;13.82;;
33593;SDS011;19920;52.242;20.940;2023-06-22T07:12:24;15.40;;;13.18;;
33593;SDS011;19920;52.242;20.940;2023-06-22T07:14:49;15.00;;;13.40;;
33593;SDS011;19920;52.242;20.940;2023-06-22T07:17:16;15.93;;;13.77;;
33593;SDS011;19920;52.242;20.940;2023-06-22T07:19:41;14.73;;;13.20;;
33593;SDS011;19920;52.242;20.940;2023-06-22T07:22:07;15.23;;;12.02;;
33593;SDS011;19920;52.242;20.940;2023-06-22T07:24:33;15.07;;;11.75;;
33593;SDS011;19920;52.242;20.940;2023-06-22T07:26:59;13.35;;;10.73;;
33593;SDS011;19920;52.242;20.940;2023-06-22T07:29:25;13.48;;;10.30;;
33593;SDS011;19920;52.242;20.940;2023-06-22T07:31:52;14.95;;;9.50;;
33593;SDS011;19920;52.242;20.940;2023-06-22T07:34:18;9.55;;;8.52;;
33593;SDS011;19920;52.242;20.940;2023-06-22T07:36:44;11.20;;;8.23;;
33593;SDS011;19920;52.242;20.940;2023-06-22T07:39:11;13.30;;;8.50;;
33593;SDS011;19920;52.242;20.940;2023-06-22T07:41:37;9.73;;;7.60;;
33593;SDS011;19920;52.242;20.940;2023-06-22T07:44:05;10.40;;;7.38;;
33593;SDS011;19920;52.242;20.940;2023-06-22T07:46:31;9.30;;;7.65;;
33593;SDS011;19920;52.242;20.940;2023-06-22T07:48:57;8.88;;;7.05;;
33593;SDS011;19920;52.242;20.940;2023-06-22T07:51:24;8.30;;;7.47;;
33593;SDS011;19920;52.242;20.940;2023-06-22T07:53:50;9.32;;;7.30;;
33593;SDS011;19920;52.242;20.940;2023-06-22T07:56:16;11.02;;;8.05;;
33593;SDS011;19920;52.242;20.940;2023-06-22T07:58:45;8.35;;;7.40;;
33593;SDS011;19920;52.242;20.940;2023-06-22T08:01:12;7.70;;;6.93;;
33593;SDS011;19920;52.242;20.940;2023-06-22T08:03:42;12.32;;;6.53;;
33593;SDS011;19920;52.242;20.940;2023-06-22T08:06:07;6.75;;;6.05;;
33593;SDS011;19920;52.242;20.940;2023-06-22T08:08:34;6.57;;;5.95;;
33593;SDS011;19920;52.242;20.940;2023-06-22T08:11:00;7.75;;;5.30;;
33593;SDS011;19920;52.242;20.940;2023-06-22T08:13:26;9.07;;;5.70;;
33593;SDS011;19920;52.242;20.940;2023-06-22T08:15:51;7.47;;;5.68;;
33593;SDS011;19920;52.242;20.940;2023-06-22T08:18:17;11.23;;;6.32;;
33593;SDS011;19920;52.242;20.940;2023-06-22T08:20:43;8.02;;;6.07;;
33593;SDS011;19920;52.242;20.940;2023-06-22T08:23:08;6.88;;;5.90;;
33593;SDS011;19920;52.242;20.940;2023-06-22T08:25:34;8.43;;;5.90;;
33593;SDS011;19920;52.242;20.940;2023-06-22T08:28:01;8.77;;;5.55;;
33593;SDS011;19920;52.242;20.940;2023-06-22T08:30:27;7.28;;;5.78;;
33593;SDS011;19920;52.242;20.940;2023-06-22T08:32:53;17.00;;;6.32;;
33593;SDS011;19920;52.242;20.940;2023-06-22T08:35:20;8.10;;;6.03;;
33593;SDS011;19920;52.242;20.940;2023-06-22T08:37:47;11.68;;;5.50;;
33593;SDS011;19920;52.242;20.940;2023-06-22T08:40:17;7.15;;;5.38;;
33593;SDS011;19920;52.242;20.940;2023-06-22T08:42:44;8.55;;;6.43;;
33593;SDS011;19920;52.242;20.940;2023-06-22T08:45:11;8.48;;;6.00;;
33593;SDS011;19920;52.242;20.940;2023-06-22T08:47:37;9.15;;;4.93;;
33593;SDS011;19920;52.242;20.940;2023-06-22T08:50:04;6.50;;;4.90;;
33593;SDS011;19920;52.242;20.940;2023-06-22T08:52:30;6.20;;;3.85;;
33593;SDS011;19920;52.242;20.940;2023-06-22T08:54:56;7.63;;;4.07;;
33593;SDS011;19920;52.242;20.940;2023-06-22T08:57:23;5.65;;;4.38;;
33593;SDS011;19920;52.242;20.940;2023-06-22T08:59:48;6.15;;;4.10;;
33593;SDS011;19920;52.242;20.940;2023-06-22T09:02:17;7.28;;;5.82;;
33593;SDS011;19920;52.242;20.940;2023-06-22T09:04:42;7.78;;;5.20;;
33593;SDS011;19920;52.242;20.940;2023-06-22T09:07:09;8.25;;;5.30;;
33593;SDS011;19920;52.242;20.940;2023-06-22T09:09:36;6.13;;;4.35;;
33593;SDS011;19920;52.242;20.940;2023-06-22T09:12:02;6.85;;;4.38;;
33593;SDS011;19920;52.242;20.940;2023-06-22T09:14:28;5.85;;;4.70;;
33593;SDS011;19920;52.242;20.940;2023-06-22T09:16:53;5.38;;;4.55;;
33593;SDS011;19920;52.242;20.940;2023-06-22T09:19:19;5.10;;;4.20;;
33593;SDS011;19920;52.242;20.940;2023-06-22T09:21:44;9.20;;;4.47;;
33593;SDS011;19920;52.242;20.940;2023-06-22T09:24:10;7.07;;;4.53;;
33593;SDS011;19920;52.242;20.940;2023-06-22T09:26:36;5.95;;;4.43;;
33593;SDS011;19920;52.242;20.940;2023-06-22T09:29:01;4.85;;;4.13;;
33593;SDS011;19920;52.242;20.940;2023-06-22T09:31:30;4.88;;;4.20;;
33593;SDS011;19920;52.242;20.940;2023-06-22T09:33:56;6.90;;;4.00;;
33593;SDS011;19920;52.242;20.940;2023-06-22T09:36:22;7.88;;;4.00;;
33593;SDS011;19920;52.242;20.940;2023-06-22T09:38:47;4.55;;;3.78;;
33593;SDS011;19920;52.242;20.940;2023-06-22T09:41:14;8.75;;;3.88;;
33593;SDS011;19920;52.242;20.940;2023-06-22T09:43:40;4.60;;;3.05;;
33593;SDS011;19920;52.242;20.940;2023-06-22T09:46:06;5.38;;;3.70;;
33593;SDS011;19920;52.242;20.940;2023-06-22T09:48:32;3.80;;;3.42;;
33593;SDS011;19920;52.242;20.940;2023-06-22T09:50:57;5.25;;;3.50;;
33593;SDS011;19920;52.242;20.940;2023-06-22T09:53:23;7.13;;;3.53;;
33593;SDS011;19920;52.242;20.940;2023-06-22T09:55:49;4.55;;;3.63;;
33593;SDS011;19920;52.242;20.940;2023-06-22T09:58:14;5.78;;;4.00;;
33593;SDS011;19920;52.242;20.940;2023-06-22T10:00:40;5.85;;;3.75;;
33593;SDS011;19920;52.242;20.940;2023-06-22T10:03:06;9.20;;;3.80;;
33593;SDS011;19920;52.242;20.940;2023-06-22T10:05:32;5.15;;;4.25;;
33593;SDS011;19920;52.242;20.940;2023-06-22T10:07:58;5.88;;;3.85;;
33593;SDS011;19920;52.242;20.940;2023-06-22T10:10:24;6.63;;;4.03;;
33593;SDS011;19920;52.242;20.940;2023-06-22T10:12:56;4.85;;;3.88;;
33593;SDS011;19920;52.242;20.940;2023-06-22T10:15:22;6.82;;;4.00;;
33593;SDS011;19920;52.242;20.940;2023-06-22T10:17:48;4.00;;;3.53;;
33593;SDS011;19920;52.242;20.940;2023-06-22T10:20:14;6.63;;;4.18;;
33593;SDS011;19920;52.242;20.940;2023-06-22T10:22:43;6.88;;;4.28;;
33593;SDS011;19920;52.242;20.940;2023-06-22T10:25:10;5.65;;;4.25;;
33593;SDS011;19920;52.242;20.940;2023-06-22T10:27:37;6.30;;;3.65;;
33593;SDS011;19920;52.242;20.940;2023-06-22T10:30:09;7.20;;;4.17;;
33593;SDS011;19920;52.242;20.940;2023-06-22T10:32:37;6.03;;;4.07;;
33593;SDS011;19920;52.242;20.940;2023-06-22T10:35:04;5.28;;;3.83;;
33593;SDS011;19920;52.242;20.940;2023-06-22T10:37:30;5.68;;;4.63;;
33593;SDS011;19920;52.242;20.940;2023-06-22T10:39:56;6.60;;;4.00;;
33593;SDS011;19920;52.242;20.940;2023-06-22T10:42:22;8.50;;;4.15;;
33593;SDS011;19920;52.242;20.940;2023-06-22T10:44:48;4.35;;;3.95;;
33593;SDS011;19920;52.242;20.940;2023-06-22T10:47:13;4.75;;;4.18;;
33593;SDS011;19920;52.242;20.940;2023-06-22T10:49:39;7.25;;;4.18;;
33593;SDS011;19920;52.242;20.940;2023-06-22T10:52:08;5.57;;;4.55;;
33593;SDS011;19920;52.242;20.940;2023-06-22T10:54:37;5.37;;;4.30;;
33593;SDS011;19920;52.242;20.940;2023-06-22T10:57:03;8.90;;;4.72;;
33593;SDS011;19920;52.242;20.940;2023-06-22T10:59:30;5.65;;;4.30;;
33593;SDS011;19920;52.242;20.940;2023-06-22T11:01:56;5.30;;;4.43;;
33593;SDS011;19920;52.242;20.940;2023-06-22T11:04:22;5.60;;;4.63;;
33593;SDS011;19920;52.242;20.940;2023-06-22T11:06:48;10.02;;;4.40;;
33593;SDS011;19920;52.242;20.940;2023-06-22T11:09:14;5.70;;;4.40;;
33593;SDS011;19920;52.242;20.940;2023-06-22T11:11:46;9.27;;;4.60;;
33593;SDS011;19920;52.242;20.940;2023-06-22T11:14:15;4.85;;;4.35;;
33593;SDS011;19920;52.242;20.940;2023-06-22T11:16:41;6.47;;;4.78;;
33593;SDS011;19920;52.242;20.940;2023-06-22T11:19:07;7.90;;;4.78;;
33593;SDS011;19920;52.242;20.940;2023-06-22T11:21:33;5.85;;;4.75;;
33593;SDS011;19920;52.242;20.940;2023-06-22T11:23:59;7.18;;;4.63;;
33593;SDS011;19920;52.242;20.940;2023-06-22T11:26:25;6.30;;;4.85;;
33593;SDS011;19920;52.242;20.940;2023-06-22T11:31:20;5.93;;;4.03;;
33593;SDS011;19920;52.242;20.940;2023-06-22T11:33:46;5.85;;;4.15;;
33593;SDS011;19920;52.242;20.940;2023-06-22T11:36:12;6.38;;;4.20;;
33593;SDS011;19920;52.242;20.940;2023-06-22T11:38:39;6.15;;;4.22;;
33593;SDS011;19920;52.242;20.940;2023-06-22T11:41:05;6.43;;;4.43;;
33593;SDS011;19920;52.242;20.940;2023-06-22T11:43:31;7.18;;;4.38;;
33593;SDS011;19920;52.242;20.940;2023-06-22T11:45:57;7.28;;;4.60;;
33593;SDS011;19920;52.242;20.940;2023-06-22T11:48:25;7.78;;;5.07;;
33593;SDS011;19920;52.242;20.940;2023-06-22T11:50:51;6.97;;;4.53;;
33593;SDS011;19920;52.242;20.940;2023-06-22T11:53:17;6.55;;;4.80;;
33593;SDS011;19920;52.242;20.940;2023-06-22T11:55:43;6.18;;;4.18;;
33593;SDS011;19920;52.242;20.940;2023-06-22T11:58:09;7.57;;;4.40;;
33593;SDS011;19920;52.242;20.940;2023-06-22T12:00:36;6.85;;;4.63;;
33593;SDS011;19920;52.242;20.940;2023-06-22T12:03:02;5.88;;;4.88;;
33593;SDS011;19920;52.242;20.940;2023-06-22T12:05:28;7.15;;;4.45;;
33593;SDS011;19920;52.242;20.940;2023-06-22T12:07:54;5.63;;;4.20;;
33593;SDS011;19920;52.242;20.940;2023-06-22T12:10:20;6.30;;;4.22;;
33593;SDS011;19920;52.242;20.940;2023-06-22T12:12:50;6.38;;;4.28;;
33593;SDS011;19920;52.242;20.940;2023-06-22T12:15:15;5.63;;;4.40;;
33593;SDS011;19920;52.242;20.940;2023-06-22T12:17:41;5.28;;;4.28;;
33593;SDS011;19920;52.242;20.940;2023-06-22T12:20:07;8.25;;;4.53;;
33593;SDS011;19920;52.242;20.940;2023-06-22T12:22:33;6.50;;;4.45;;
33593;SDS011;19920;52.242;20.940;2023-06-22T12:24:59;9.10;;;4.72;;
33593;SDS011;19920;52.242;20.940;2023-06-22T12:27:25;5.50;;;3.95;;
33593;SDS011;19920;52.242;20.940;2023-06-22T12:29:51;5.15;;;4.20;;
33593;SDS011;19920;52.242;20.940;2023-06-22T12:32:17;5.38;;;4.22;;
33593;SDS011;19920;52.242;20.940;2023-06-22T12:34:43;5.38;;;4.20;;
33593;SDS011;19920;52.242;20.940;2023-06-22T12:37:09;5.97;;;3.83;;
33593;SDS011;19920;52.242;20.940;2023-06-22T12:39:35;3.88;;;3.55;;
33593;SDS011;19920;52.242;20.940;2023-06-22T12:42:00;7.00;;;4.57;;
33593;SDS011;19920;52.242;20.940;2023-06-22T12:44:26;5.03;;;4.28;;
33593;SDS011;19920;52.242;20.940;2023-06-22T12:46:52;8.18;;;3.92;;
33593;SDS011;19920;52.242;20.940;2023-06-22T12:49:18;5.05;;;4.13;;
33593;SDS011;19920;52.242;20.940;2023-06-22T12:51:43;7.38;;;3.80;;
33593;SDS011;19920;52.242;20.940;2023-06-22T12:54:11;4.55;;;3.97;;
33593;SDS011;19920;52.242;20.940;2023-06-22T12:56:37;6.82;;;3.95;;
33593;SDS011;19920;52.242;20.940;2023-06-22T12:59:06;4.40;;;4.00;;
33593;SDS011;19920;52.242;20.940;2023-06-22T13:01:32;4.85;;;4.30;;
33593;SDS011;19920;52.242;20.940;2023-06-22T13:03:58;5.50;;;4.15;;
33593;SDS011;19920;52.242;20.940;2023-06-22T13:06:24;5.20;;;4.10;;
33593;SDS011;19920;52.242;20.940;2023-06-22T13:08:50;5.10;;;4.50;;
33593;SDS011;19920;52.242;20.940;2023-06-22T13:11:15;5.40;;;4.90;;
33593;SDS011;19920;52.242;20.940;2023-06-22T13:13:41;6.78;;;4.88;;
33593;SDS011;19920;52.242;20.940;2023-06-22T13:16:07;4.82;;;4.32;;
33593;SDS011;19920;52.242;20.940;2023-06-22T13:18:33;5.65;;;4.88;;
33593;SDS011;19920;52.242;20.940;2023-06-22T13:21:00;5.05;;;4.65;;
33593;SDS011;19920;52.242;20.940;2023-06-22T13:23:26;4.97;;;4.28;;
33593;SDS011;19920;52.242;20.940;2023-06-22T13:25:52;5.60;;;4.45;;
33593;SDS011;19920;52.242;20.940;2023-06-22T13:28:18;7.32;;;4.63;;
33593;SDS011;19920;52.242;20.940;2023-06-22T13:30:45;5.70;;;4.95;;
33593;SDS011;19920;52.242;20.940;2023-06-22T13:33:12;5.18;;;4.68;;
33593;SDS011;19920;52.242;20.940;2023-06-22T13:35:41;4.18;;;3.78;;
33593;SDS011;19920;52.242;20.940;2023-06-22T13:38:09;4.65;;;3.95;;
33593;SDS011;19920;52.242;20.940;2023-06-22T13:40:36;6.68;;;4.93;;
33593;SDS011;19920;52.242;20.940;2023-06-22T13:43:05;4.60;;;4.20;;
33593;SDS011;19920;52.242;20.940;2023-06-22T13:45:31;5.55;;;4.60;;
33593;SDS011;19920;52.242;20.940;2023-06-22T13:47:57;5.38;;;4.30;;
33593;SDS011;19920;52.242;20.940;2023-06-22T13:50:22;4.60;;;4.10;;
33593;SDS011;19920;52.242;20.940;2023-06-22T13:52:48;4.75;;;4.00;;
33593;SDS011;19920;52.242;20.940;2023-06-22T13:55:14;5.18;;;4.68;;
33593;SDS011;19920;52.242;20.940;2023-06-22T13:57:40;4.78;;;4.35;;
33593;SDS011;19920;52.242;20.940;2023-06-22T14:00:06;7.20;;;4.32;;
33593;SDS011;19920;52.242;20.940;2023-06-22T14:02:37;7.88;;;4.55;;
33593;SDS011;19920;52.242;20.940;2023-06-22T14:05:03;5.03;;;4.40;;
33593;SDS011;19920;52.242;20.940;2023-06-22T14:07:29;5.30;;;4.75;;
33593;SDS011;19920;52.242;20.940;2023-06-22T14:09:54;5.05;;;4.55;;
33593;SDS011;19920;52.242;20.940;2023-06-22T14:12:20;5.05;;;4.45;;
33593;SDS011;19920;52.242;20.940;2023-06-22T14:14:45;5.22;;;4.72;;
33593;SDS011;19920;52.242;20.940;2023-06-22T14:17:11;4.70;;;4.30;;
33593;SDS011;19920;52.242;20.940;2023-06-22T14:19:37;7.15;;;4.70;;
33593;SDS011;19920;52.242;20.940;2023-06-22T14:22:03;6.00;;;4.68;;
33593;SDS011;19920;52.242;20.940;2023-06-22T14:24:28;5.28;;;4.50;;
33593;SDS011;19920;52.242;20.940;2023-06-22T14:26:54;6.45;;;4.50;;
33593;SDS011;19920;52.242;20.940;2023-06-22T14:29:21;5.30;;;4.80;;
33593;SDS011;19920;52.242;20.940;2023-06-22T14:31:47;9.98;;;5.47;;
33593;SDS011;19920;52.242;20.940;2023-06-22T14:34:13;6.18;;;5.53;;